Largo — PFNC — position and weather

sailwx.info

Track history (hours):
 
Tides and Currents Weather Stations Pressure Air Temp Water Temp Dewpoint Dewpoint Depression Visibility Wind Speed Wind Dir Waves Ship Positions

Largo

Last reported at 2014-Sep-21 17:20 UTC. Time now 2014-Sep-22 14:16 UTC.
Position N 35°56' E 000°04'.

Length 91 m; draft 6.1 m.

Type: Cargo ship. MMSI: 245645000.

Date/timePositionNaut miles runAvg speedWind from/ knotsBaromVisibWave heightAir tempDewpointWater temp
2014-Sep-21 17:20N 35°56' E 000°04'  
2014-Sep-18 20:31N 36°13' E 000°16'10 9.1
2014-Sep-18 19:22N 36°19' E 000°27'27 9.1
2014-Sep-18 16:25N 36°32' E 000°56'8 9.2
2014-Sep-18 15:33N 36°35' E 001°05'10 9.6
2014-Sep-18 14:32N 36°37' E 001°17'26 8.7
2014-Sep-18 11:32N 36°42' E 001°49'  
2014-Sep-13 09:33N 36°53' E 004°59'66 9.4
2014-Sep-13 02:28N 37°36' E 003°55'16 8.1
2014-Sep-13 00:27N 37°46' E 003°40'7 7.5
2014-Sep-12 23:33N 37°51' E 003°33'8 7.5
2014-Sep-12 22:33N 37°55' E 003°26'9 8.2
2014-Sep-12 21:28N 38°01' E 003°17'8 8.5
2014-Sep-12 20:33N 38°06' E 003°10'9 8.6
2014-Sep-12 19:32N 38°12' E 003°01'8 8.5
2014-Sep-12 18:33N 38°17' E 002°53'9 8.6
2014-Sep-12 17:32N 38°23' E 002°45'8 8.5
2014-Sep-12 16:32N 38°29' E 002°37'8 8.4
2014-Sep-12 15:32N 38°34' E 002°28'10 8.4
2014-Sep-12 14:18N 38°41' E 002°18'6 8.1
2014-Sep-12 13:33N 38°44' E 002°12'8 8.1
2014-Sep-12 12:33N 38°50' E 002°04'8 8.3
2014-Sep-12 11:33N 38°55' E 001°56'9 8.4
2014-Sep-12 10:33N 39°01' E 001°48'8 8.5
2014-Sep-12 09:34N 39°06' E 001°40'10 8.8
2014-Sep-12 08:22N 39°12' E 001°29'7 8.5
2014-Sep-12 07:31N 39°16' E 001°21'11 8.6
2014-Sep-12 06:18N 39°22' E 001°10'9 8.5
2014-Sep-12 05:17N 39°27' E 001°01'7 8.5
2014-Sep-12 04:26N 39°31' E 000°53'17 8.6
2014-Sep-12 02:30N 39°41' E 000°35'8 8.5
2014-Sep-12 01:33N 39°45' E 000°27'18 8.5
2014-Sep-11 23:27N 39°55' E 000°08'  
Track history (hours):
 
Tides and Currents Weather Stations Pressure Air Temp Water Temp Dewpoint Dewpoint Depression Visibility Wind Speed Wind Dir Waves Ship Positions

Largo

Last reported at 2014-Sep-21 17:20 UTC. Time now 2014-Sep-22 14:16 UTC.
Position N 35°56' E 000°04'.

Length 91 m; draft 6.1 m.

Type: Cargo ship. MMSI: 245645000.

Date/timePositionNaut miles runAvg speedWind from/ knotsBaromVisibWave heightAir tempDewpointWater temp
2014-Sep-21 17:20N 35°56' E 000°04'  
2014-Sep-18 20:31N 36°13' E 000°16'10 9.1
2014-Sep-18 19:22N 36°19' E 000°27'27 9.1
2014-Sep-18 16:25N 36°32' E 000°56'8 9.2
2014-Sep-18 15:33N 36°35' E 001°05'10 9.6
2014-Sep-18 14:32N 36°37' E 001°17'26 8.7
2014-Sep-18 11:32N 36°42' E 001°49'  
2014-Sep-13 09:33N 36°53' E 004°59'66 9.4
2014-Sep-13 02:28N 37°36' E 003°55'16 8.1
2014-Sep-13 00:27N 37°46' E 003°40'7 7.5
2014-Sep-12 23:33N 37°51' E 003°33'8 7.5
2014-Sep-12 22:33N 37°55' E 003°26'9 8.2
2014-Sep-12 21:28N 38°01' E 003°17'8 8.5
2014-Sep-12 20:33N 38°06' E 003°10'9 8.6
2014-Sep-12 19:32N 38°12' E 003°01'8 8.5
2014-Sep-12 18:33N 38°17' E 002°53'9 8.6
2014-Sep-12 17:32N 38°23' E 002°45'8 8.5
2014-Sep-12 16:32N 38°29' E 002°37'8 8.4
2014-Sep-12 15:32N 38°34' E 002°28'10 8.4
2014-Sep-12 14:18N 38°41' E 002°18'6 8.1
2014-Sep-12 13:33N 38°44' E 002°12'8 8.1
2014-Sep-12 12:33N 38°50' E 002°04'8 8.3
2014-Sep-12 11:33N 38°55' E 001°56'9 8.4
2014-Sep-12 10:33N 39°01' E 001°48'8 8.5
2014-Sep-12 09:34N 39°06' E 001°40'10 8.8
2014-Sep-12 08:22N 39°12' E 001°29'7 8.5
2014-Sep-12 07:31N 39°16' E 001°21'11 8.6
2014-Sep-12 06:18N 39°22' E 001°10'9 8.5
2014-Sep-12 05:17N 39°27' E 001°01'7 8.5
2014-Sep-12 04:26N 39°31' E 000°53'17 8.6
2014-Sep-12 02:30N 39°41' E 000°35'8 8.5
2014-Sep-12 01:33N 39°45' E 000°27'18 8.5
2014-Sep-11 23:27N 39°55' E 000°08'  

Dump ship's entire track history